sim
Sign-in with your pilot id or email,
or register
Callsign
Passwort

Schedule Details

Flight Number: DLH1627
Departure: Krakow John Paul II International Airport (EPKK) at 05:00
Arrival: Munich Airport (EDDM) at 06:20
Route: Lufthansa Passenger Schedule. Enter filed route here before submitting Pirep.

Weather Information
Getting current METAR information for EPKK 261800Z 29012KT 9999 -SHRA SCT013CB BKN022 10/08 Q0998 RESHRA
Getting current METAR information for EDDM 261750Z 25022G32KT 9999 -RA BKN023 OVC042 07/04 Q1001 NOSIG

Schedule Frequency

Route Map